createdAt,value
2019-01-15T00:00:21.120Z,20.73
2019-01-15T00:02:48.120Z,14.57
2019-01-15T00:05:15.066Z,17.13
2019-01-15T00:07:42.031Z,14.57
2019-01-15T00:10:09.270Z,10.30
2019-01-15T00:12:36.275Z,10.30
2019-01-15T00:15:04.074Z,13.47
2019-01-15T00:17:31.103Z,10.03
2019-01-15T00:19:58.067Z,10.93
2019-01-15T00:22:25.013Z,12.33
2019-01-15T00:24:51.965Z,15.13
2019-01-15T00:27:18.902Z,16.20
2019-01-15T00:29:45.857Z,15.63
2019-01-15T00:32:12.814Z,9.87
2019-01-15T00:34:39.813Z,11.77
2019-01-15T00:37:07.634Z,14.53
2019-01-15T00:39:34.565Z,11.17
2019-01-15T00:42:01.576Z,13.13
2019-01-15T00:44:28.871Z,14.13
2019-01-15T00:46:55.822Z,15.90
2019-01-15T00:49:22.771Z,21.77
2019-01-15T00:51:50.675Z,21.00
2019-01-15T00:54:17.630Z,23.43
2019-01-15T00:56:45.614Z,13.37
2019-01-15T00:59:12.561Z,10.43
2019-01-15T01:01:39.530Z,14.70
2019-01-15T01:04:06.526Z,16.23
2019-01-15T01:06:33.490Z,14.70
2019-01-15T01:09:00.477Z,14.50
2019-01-15T01:11:27.435Z,15.37
2019-01-15T01:13:54.361Z,16.17
2019-01-15T01:16:21.288Z,16.53
2019-01-15T01:18:48.249Z,14.37
2019-01-15T01:26:14.510Z,15.03
2019-01-15T01:28:41.461Z,11.97
2019-01-15T01:31:08.440Z,25.67
2019-01-15T01:33:35.429Z,9.33
2019-01-15T01:36:02.454Z,14.97
2019-01-15T01:38:29.402Z,17.57
2019-01-15T01:40:56.386Z,16.60
2019-01-15T01:43:23.566Z,16.53
2019-01-15T01:45:50.535Z,12.93
2019-01-15T01:48:17.542Z,13.63
2019-01-15T01:50:44.527Z,13.57
2019-01-15T01:53:11.559Z,15.00
2019-01-15T01:55:38.477Z,11.30
2019-01-15T01:58:05.422Z,16.17
2019-01-15T02:00:32.409Z,13.50
2019-01-15T02:02:59.344Z,20.20
2019-01-15T02:05:26.295Z,17.37
2019-01-15T02:07:53.259Z,17.90
2019-01-15T02:10:20.200Z,28.37
2019-01-15T02:12:47.577Z,19.37
2019-01-15T02:15:17.894Z,16.50
2019-01-15T02:17:44.904Z,23.23
2019-01-15T02:20:13.258Z,27.13
2019-01-15T02:22:40.229Z,22.00
2019-01-15T02:25:07.414Z,27.90
2019-01-15T02:27:34.412Z,18.70
2019-01-15T02:30:01.414Z,16.00
2019-01-15T02:32:28.406Z,21.73
2019-01-15T02:34:55.392Z,15.57
2019-01-15T02:37:22.378Z,14.73
2019-01-15T02:39:51.022Z,16.23
2019-01-15T02:42:18.010Z,15.73
2019-01-15T02:44:44.949Z,12.97
2019-01-15T02:47:12.059Z,10.70
2019-01-15T02:49:39.029Z,15.63
2019-01-15T02:52:06.949Z,17.67
2019-01-15T02:54:33.895Z,15.00
2019-01-15T02:57:00.841Z,14.83
2019-01-15T02:59:28.618Z,14.33
2019-01-15T03:01:56.268Z,11.63
2019-01-15T03:04:23.284Z,13.87
2019-01-15T03:06:50.328Z,19.47
2019-01-15T03:09:17.516Z,22.90
2019-01-15T03:11:45.080Z,19.90
2019-01-15T03:14:12.117Z,16.70
2019-01-15T03:16:39.065Z,14.83
2019-01-15T03:19:06.079Z,13.90
2019-01-15T03:21:33.058Z,13.03
2019-01-15T03:24:00.070Z,11.17
2019-01-15T03:26:27.117Z,10.63
2019-01-15T03:28:54.057Z,13.13
2019-01-15T03:31:21.092Z,14.13
2019-01-15T03:33:48.060Z,16.03
2019-01-15T03:36:15.053Z,12.20
2019-01-15T03:38:42.006Z,16.90
2019-01-15T03:41:09.020Z,18.43
2019-01-15T03:43:36.023Z,14.43
2019-01-15T03:46:04.514Z,19.27
2019-01-15T03:48:30.019Z,18.97
2019-01-15T03:50:56.986Z,13.97
2019-01-15T03:53:23.999Z,13.93
2019-01-15T03:55:50.973Z,9.33
2019-01-15T03:58:18.205Z,17.03
2019-01-15T04:00:45.360Z,11.93
2019-01-15T04:03:12.327Z,14.10
2019-01-15T04:05:39.304Z,17.20
2019-01-15T04:08:06.266Z,13.67
2019-01-15T04:10:33.233Z,11.47
2019-01-15T04:13:00.219Z,12.33
2019-01-15T04:15:27.216Z,20.23
2019-01-15T04:17:54.218Z,17.07
2019-01-15T04:20:21.165Z,13.70
2019-01-15T04:22:48.090Z,17.90
2019-01-15T04:25:15.114Z,15.13
2019-01-15T04:27:42.115Z,12.93
2019-01-15T04:30:12.155Z,12.80
2019-01-15T04:32:39.952Z,14.23
2019-01-15T04:35:07.222Z,18.33
2019-01-15T04:37:34.213Z,18.70
2019-01-15T04:40:01.248Z,23.73
2019-01-15T04:42:28.147Z,15.00
2019-01-15T04:44:56.203Z,17.13
2019-01-15T04:47:23.160Z,20.20
2019-01-15T04:49:50.155Z,14.67
2019-01-15T04:52:17.136Z,31.43
2019-01-15T04:54:44.114Z,19.97
2019-01-15T04:57:11.165Z,15.67
2019-01-15T04:59:38.396Z,13.33
2019-01-15T05:02:05.407Z,20.90
2019-01-15T05:04:32.377Z,19.43
2019-01-15T05:06:59.392Z,16.53
2019-01-15T05:09:26.377Z,17.70
2019-01-15T05:11:53.310Z,16.93
2019-01-15T05:14:20.449Z,17.07
2019-01-15T05:16:47.401Z,15.23
2019-01-15T05:19:14.424Z,18.90
2019-01-15T05:21:41.418Z,27.93
2019-01-15T05:24:08.470Z,16.67
2019-01-15T05:26:35.462Z,21.93
2019-01-15T05:29:02.476Z,18.63
2019-01-15T05:31:29.485Z,20.07
2019-01-15T05:33:56.476Z,37.57
2019-01-15T05:36:23.390Z,18.70
2019-01-15T05:38:50.402Z,13.40
2019-01-15T05:41:17.334Z,12.87
2019-01-15T05:43:44.331Z,21.23
2019-01-15T05:46:11.381Z,15.47
2019-01-15T05:48:38.619Z,14.63
2019-01-15T05:51:15.260Z,10.00
2019-01-15T05:53:42.307Z,24.20
2019-01-15T05:56:09.662Z,13.47
2019-01-15T05:58:36.461Z,21.90
2019-01-15T06:01:03.659Z,15.97
2019-01-15T06:03:30.865Z,27.43
2019-01-15T06:05:57.894Z,23.27
2019-01-15T06:08:25.045Z,20.73
2019-01-15T06:10:52.148Z,20.43
2019-01-15T06:13:19.141Z,19.83
2019-01-15T06:15:46.246Z,27.27
2019-01-15T06:18:13.389Z,32.50
2019-01-15T06:20:40.425Z,22.80
2019-01-15T06:23:07.593Z,14.33
2019-01-15T06:25:34.731Z,14.47
2019-01-15T06:28:01.774Z,14.40
2019-01-15T06:30:28.854Z,17.03
2019-01-15T06:32:55.938Z,19.60
2019-01-15T06:35:22.979Z,21.10
2019-01-15T06:37:51.481Z,19.73
2019-01-15T06:40:17.068Z,16.70
2019-01-15T06:42:44.082Z,27.47
2019-01-15T06:45:14.481Z,13.80
2019-01-15T06:47:41.581Z,31.87
2019-01-15T06:50:09.013Z,17.93
2019-01-15T06:52:36.087Z,21.97
2019-01-15T06:55:03.185Z,20.93
2019-01-15T06:57:30.217Z,27.90
2019-01-15T06:59:57.206Z,22.30
2019-01-15T07:02:24.216Z,16.50
2019-01-15T07:04:51.290Z,20.73
2019-01-15T07:07:18.278Z,18.10
2019-01-15T07:09:45.317Z,28.97
2019-01-15T07:12:12.313Z,25.77
2019-01-15T07:14:39.414Z,27.90
2019-01-15T07:17:06.436Z,31.47
2019-01-15T07:19:33.506Z,36.13
2019-01-15T07:22:00.526Z,54.73
2019-01-15T07:24:27.555Z,47.80
2019-01-15T07:26:54.578Z,44.70
2019-01-15T07:29:21.921Z,58.63
2019-01-15T07:31:49.009Z,29.13
2019-01-15T07:34:16.025Z,18.03
2019-01-15T07:36:43.028Z,25.23
2019-01-15T07:39:10.861Z,21.40
2019-01-15T07:41:37.983Z,32.17
2019-01-15T07:44:05.040Z,27.23
2019-01-15T07:46:32.172Z,13.63
2019-01-15T07:48:59.984Z,20.37
2019-01-15T07:51:27.037Z,22.77
2019-01-15T07:53:54.658Z,19.03
2019-01-15T07:56:21.670Z,13.90
2019-01-15T07:58:49.809Z,26.10
2019-01-15T08:01:17.446Z,34.97
2019-01-15T08:03:44.446Z,21.87
2019-01-15T08:06:12.111Z,28.70
2019-01-15T08:08:40.014Z,25.07
2019-01-15T08:11:07.168Z,11.77
2019-01-15T08:13:34.215Z,17.47
2019-01-15T08:16:01.197Z,20.23
2019-01-15T08:18:28.251Z,17.77
2019-01-15T08:20:55.293Z,15.57
2019-01-15T08:23:22.281Z,15.20
2019-01-15T08:25:49.287Z,12.93
2019-01-15T08:28:16.248Z,29.27
2019-01-15T08:30:43.305Z,15.67
2019-01-15T08:33:10.369Z,11.30
2019-01-15T08:35:37.518Z,21.40
2019-01-15T08:38:04.758Z,16.33
2019-01-15T08:40:31.780Z,27.27
2019-01-15T08:42:58.796Z,20.30
2019-01-15T08:45:25.789Z,22.20
2019-01-15T08:47:58.264Z,23.50
2019-01-15T08:50:25.930Z,27.07
2019-01-15T08:52:53.718Z,22.20
2019-01-15T08:55:20.751Z,14.90
2019-01-15T08:57:47.866Z,16.97
2019-01-15T09:00:15.018Z,15.67
2019-01-15T09:02:42.066Z,13.07
2019-01-15T09:05:09.112Z,15.27
2019-01-15T09:07:36.175Z,14.87
2019-01-15T09:10:04.581Z,18.40
2019-01-15T09:12:31.687Z,25.43
2019-01-15T09:14:58.735Z,11.70
2019-01-15T09:17:25.879Z,17.97
2019-01-15T09:19:52.940Z,32.57
2019-01-15T09:22:19.984Z,29.17
2019-01-15T09:24:46.965Z,15.30
2019-01-15T09:27:14.028Z,19.13
2019-01-15T09:29:41.042Z,21.93
2019-01-15T09:32:09.896Z,24.73
2019-01-15T09:34:36.928Z,14.90
2019-01-15T09:37:04.992Z,17.97
2019-01-15T09:39:32.730Z,18.10
2019-01-15T09:42:01.007Z,21.73
2019-01-15T09:44:34.099Z,19.87
2019-01-15T09:46:55.641Z,20.93
2019-01-15T09:49:22.699Z,26.20
2019-01-15T09:51:49.667Z,22.50
2019-01-15T09:54:16.659Z,16.13
2019-01-15T09:56:43.705Z,22.30
2019-01-15T09:59:10.779Z,18.53
2019-01-15T10:01:38.051Z,14.83
2019-01-15T10:04:05.079Z,19.03
2019-01-15T10:06:32.141Z,14.40
2019-01-15T10:08:59.523Z,12.27
2019-01-15T10:11:26.575Z,22.27
2019-01-15T10:13:53.559Z,31.83
2019-01-15T10:16:20.622Z,29.03
2019-01-15T10:18:47.642Z,21.60
2019-01-15T10:21:14.586Z,19.93
2019-01-15T10:23:42.634Z,17.27
2019-01-15T10:26:09.656Z,17.13
2019-01-15T10:28:41.865Z,31.90
2019-01-15T10:33:24.714Z,37.77
2019-01-15T10:35:56.456Z,17.73
2019-01-15T10:38:36.371Z,41.53
2019-01-15T10:41:04.699Z,29.20
2019-01-15T10:43:32.867Z,13.47
2019-01-15T10:46:02.755Z,11.90
2019-01-15T10:48:30.865Z,29.57
2019-01-15T10:50:57.909Z,13.90
2019-01-15T10:53:30.539Z,31.00
2019-01-15T10:55:57.816Z,16.27
2019-01-15T10:58:29.922Z,18.50
2019-01-15T11:00:56.951Z,16.07
2019-01-15T11:03:24.114Z,22.20
2019-01-15T11:05:51.194Z,18.50
2019-01-15T11:08:18.209Z,30.33
2019-01-15T11:10:45.200Z,21.07
2019-01-15T11:13:12.361Z,18.53
2019-01-15T11:15:43.087Z,13.97
2019-01-15T11:18:07.297Z,18.83
2019-01-15T11:20:34.332Z,26.83
2019-01-15T11:23:01.465Z,26.33
2019-01-15T11:25:30.919Z,30.67
2019-01-15T11:28:03.651Z,29.67
2019-01-15T11:30:30.769Z,25.23
2019-01-15T11:32:59.365Z,21.53
2019-01-15T11:35:26.513Z,25.23
2019-01-15T11:37:54.060Z,28.67
2019-01-15T11:40:21.210Z,25.53
2019-01-15T11:42:48.200Z,38.13
2019-01-15T11:45:15.897Z,23.37
2019-01-15T11:47:42.955Z,13.93
2019-01-15T11:50:12.857Z,19.20
2019-01-15T11:52:40.643Z,21.87
2019-01-15T11:55:08.266Z,24.80
2019-01-15T11:57:35.248Z,33.33
2019-01-15T12:00:02.338Z,22.50
2019-01-15T12:02:33.982Z,19.47
2019-01-15T12:05:08.556Z,26.87
2019-01-15T12:07:46.059Z,36.17
2019-01-15T12:10:26.535Z,16.43
2019-01-15T12:13:03.521Z,21.97
2019-01-15T12:15:36.152Z,13.87
2019-01-15T12:18:10.781Z,18.73
2019-01-15T12:20:44.341Z,14.93
2019-01-15T12:24:19.009Z,25.13
2019-01-15T12:26:51.583Z,19.30
2019-01-15T12:29:24.924Z,19.67
2019-01-15T12:32:30.612Z,12.83
2019-01-15T12:35:03.003Z,20.50
2019-01-15T12:37:35.786Z,18.27
2019-01-15T12:40:08.058Z,16.30
2019-01-15T12:44:44.990Z,24.90
2019-01-15T12:47:17.223Z,16.37
2019-01-15T12:51:53.004Z,20.27
2019-01-15T12:54:26.287Z,21.63
2019-01-15T12:56:58.907Z,14.53
2019-01-15T12:59:34.269Z,29.07
2019-01-15T13:02:08.754Z,20.27
2019-01-15T13:04:41.955Z,19.90
2019-01-15T13:07:33.590Z,16.67
2019-01-15T13:10:06.369Z,18.70
2019-01-15T13:12:38.963Z,18.70
2019-01-15T13:15:12.809Z,22.37
2019-01-15T13:17:45.494Z,19.73
2019-01-15T13:20:34.863Z,23.83
2019-01-15T13:23:07.616Z,21.07
2019-01-15T13:25:42.082Z,19.77
2019-01-15T13:28:15.491Z,21.23
2019-01-15T13:30:48.247Z,21.67
2019-01-15T13:33:27.889Z,27.37
2019-01-15T13:36:00.627Z,25.27
2019-01-15T13:39:03.158Z,28.57
2019-01-15T13:41:35.839Z,32.90
2019-01-15T13:44:09.471Z,27.43
2019-01-15T13:46:44.508Z,22.57
2019-01-15T13:49:17.028Z,30.07
2019-01-15T13:51:51.446Z,20.90
2019-01-15T13:54:28.074Z,25.20
2019-01-15T13:57:00.835Z,26.47
2019-01-15T13:59:34.826Z,24.57
2019-01-15T14:02:07.567Z,27.40
2019-01-15T14:04:39.815Z,29.60
2019-01-15T14:07:12.360Z,26.13
2019-01-15T14:09:46.520Z,36.53
2019-01-15T14:12:18.959Z,49.23
2019-01-15T14:14:50.612Z,39.67
2019-01-15T14:17:55.709Z,40.77
2019-01-15T14:22:35.417Z,29.37
2019-01-15T14:25:41.368Z,30.97
2019-01-15T14:28:17.592Z,21.70
2019-01-15T14:30:51.959Z,25.60
2019-01-15T14:33:29.193Z,28.33
2019-01-15T14:36:03.721Z,24.90
2019-01-15T14:40:38.561Z,23.13
2019-01-15T14:43:11.276Z,28.77
2019-01-15T14:45:46.938Z,30.43
2019-01-15T14:48:24.218Z,29.20
2019-01-15T14:50:57.518Z,44.83
2019-01-15T14:53:29.900Z,33.43
2019-01-15T14:56:06.337Z,25.40
2019-01-15T14:58:38.980Z,27.23
2019-01-15T15:01:42.878Z,24.33
2019-01-15T15:04:16.368Z,40.60
2019-01-15T15:06:50.144Z,42.90
2019-01-15T15:09:31.903Z,31.20
2019-01-15T15:12:07.599Z,28.03
2019-01-15T15:14:42.099Z,38.97
2019-01-15T15:19:28.804Z,45.67
2019-01-15T15:24:03.166Z,29.00
2019-01-15T15:26:34.773Z,30.00
2019-01-15T15:30:05.074Z,28.37
2019-01-15T15:32:37.958Z,24.63
2019-01-15T15:35:12.789Z,26.87
2019-01-15T15:37:48.504Z,27.77
2019-01-15T15:41:20.636Z,26.23
2019-01-15T15:43:55.166Z,29.03
2019-01-15T15:48:35.036Z,29.40
2019-01-15T15:51:23.672Z,31.23
2019-01-15T15:53:59.262Z,31.53
2019-01-15T15:56:33.181Z,35.93
2019-01-15T15:59:05.840Z,28.33
2019-01-15T16:01:38.751Z,29.30
2019-01-15T16:04:20.449Z,37.00
2019-01-15T16:06:53.959Z,39.40
2019-01-15T16:09:26.735Z,42.37
2019-01-15T16:11:59.410Z,47.93
2019-01-15T16:14:30.993Z,38.70
2019-01-15T16:17:06.438Z,29.80
2019-01-15T16:20:41.473Z,28.10
2019-01-15T16:23:13.150Z,30.17
2019-01-15T16:26:46.032Z,33.23
2019-01-15T16:29:18.724Z,31.30
2019-01-15T16:31:54.208Z,29.30
2019-01-15T16:34:27.851Z,44.97
2019-01-15T16:37:31.794Z,30.23
2019-01-15T16:40:05.418Z,56.23
2019-01-15T16:42:38.131Z,51.77
2019-01-15T16:45:13.112Z,48.80
2019-01-15T16:47:47.274Z,41.60
2019-01-15T16:50:21.046Z,49.97
2019-01-15T16:52:56.576Z,45.33
2019-01-15T16:55:44.497Z,34.87
2019-01-15T16:58:45.421Z,36.83
2019-01-15T17:01:18.563Z,35.97
2019-01-15T17:03:53.942Z,63.60
2019-01-15T17:06:32.771Z,33.13
2019-01-15T17:09:39.611Z,45.17
2019-01-15T17:12:12.187Z,32.47
2019-01-15T17:14:45.890Z,45.47
2019-01-15T17:17:34.218Z,53.13
2019-01-15T17:20:08.408Z,52.80
2019-01-15T17:22:43.072Z,72.37
2019-01-15T17:25:31.819Z,44.73
2019-01-15T17:28:04.807Z,47.00
2019-01-15T17:30:36.590Z,35.50
2019-01-15T17:35:16.007Z,43.80
2019-01-15T17:37:48.966Z,67.17
2019-01-15T17:41:21.034Z,29.77
2019-01-15T17:43:56.497Z,47.27
2019-01-15T17:46:41.084Z,71.60
2019-01-15T17:49:13.633Z,46.13
2019-01-15T17:51:46.304Z,38.03
2019-01-15T17:54:19.958Z,27.20
2019-01-15T17:56:51.670Z,30.60
2019-01-15T17:59:25.322Z,49.67
2019-01-15T18:01:58.315Z,25.53
2019-01-15T18:06:33.682Z,53.87
2019-01-15T18:09:06.607Z,47.40
2019-01-15T18:11:43.381Z,34.17
2019-01-15T18:14:16.266Z,39.43
2019-01-15T18:16:54.166Z,49.87
2019-01-15T18:19:28.240Z,35.10
2019-01-15T18:22:59.488Z,41.47
2019-01-15T18:25:32.369Z,38.23
2019-01-15T18:30:12.071Z,32.00
2019-01-15T18:32:58.895Z,27.53
2019-01-15T18:35:34.637Z,30.73
2019-01-15T18:38:09.413Z,33.47
2019-01-15T18:41:44.481Z,21.43
2019-01-15T18:44:18.160Z,32.20
2019-01-15T18:47:54.642Z,40.77
2019-01-15T18:50:32.548Z,49.30
2019-01-15T18:53:16.009Z,58.63
2019-01-15T18:56:05.748Z,44.90
2019-01-15T19:00:47.410Z,40.03
2019-01-15T19:03:21.170Z,44.83
2019-01-15T19:05:57.846Z,59.27
2019-01-15T19:08:35.323Z,66.80
2019-01-15T19:11:09.022Z,53.63
2019-01-15T19:13:43.032Z,52.53
2019-01-15T19:16:19.830Z,28.13
2019-01-15T19:18:52.773Z,26.17
2019-01-15T19:22:23.180Z,32.97
2019-01-15T19:24:57.999Z,27.80
2019-01-15T19:28:01.015Z,33.50
2019-01-15T19:30:37.861Z,32.63
2019-01-15T19:33:19.009Z,32.43
2019-01-15T19:35:52.327Z,46.87
2019-01-15T19:38:32.494Z,33.43
2019-01-15T19:41:12.677Z,39.70
2019-01-15T19:43:53.864Z,26.13
2019-01-15T19:47:10.474Z,42.77
2019-01-15T19:51:42.208Z,56.07
2019-01-15T19:54:16.792Z,54.83
2019-01-15T19:57:06.875Z,45.60
2019-01-15T19:59:56.940Z,41.80
2019-01-15T20:02:36.659Z,64.33
2019-01-15T20:05:20.142Z,43.73
2019-01-15T20:08:04.292Z,55.60
2019-01-15T20:10:38.135Z,47.47
2019-01-15T20:13:18.580Z,26.93
2019-01-15T20:15:52.446Z,23.50
2019-01-15T20:18:24.070Z,37.40
2019-01-15T20:20:56.823Z,32.30
2019-01-15T20:23:51.060Z,28.97
2019-01-15T20:26:43.156Z,30.67
2019-01-15T20:29:15.979Z,26.63
2019-01-15T20:31:48.700Z,27.03
2019-01-15T20:34:22.257Z,23.77
2019-01-15T20:37:58.205Z,24.67
2019-01-15T20:40:29.839Z,23.80
2019-01-15T20:43:05.636Z,29.33
2019-01-15T20:46:10.777Z,24.80
2019-01-15T20:48:55.356Z,20.30
2019-01-15T20:51:28.161Z,22.87
2019-01-15T20:54:00.984Z,22.33
2019-01-15T20:56:38.515Z,20.77
2019-01-15T20:59:12.772Z,22.57
2019-01-15T21:01:59.467Z,26.10
2019-01-15T21:04:32.547Z,23.23
2019-01-15T21:07:12.271Z,27.93
2019-01-15T21:09:44.801Z,26.40
2019-01-15T21:12:18.271Z,24.37
2019-01-15T21:14:54.174Z,24.47
2019-01-15T21:17:32.963Z,34.87
2019-01-15T21:20:11.570Z,27.30
2019-01-15T21:24:55.143Z,45.47
2019-01-15T21:27:27.948Z,28.47
2019-01-15T21:30:03.397Z,30.07
2019-01-15T21:32:36.218Z,23.80
2019-01-15T21:35:12.816Z,60.27
2019-01-15T21:37:47.576Z,37.10
2019-01-15T21:40:19.357Z,20.53
2019-01-15T21:42:52.250Z,26.47
2019-01-15T21:45:27.099Z,42.80
2019-01-15T21:48:03.709Z,20.90
2019-01-15T21:50:36.594Z,23.93
2019-01-15T21:53:08.316Z,23.40
2019-01-15T21:55:39.999Z,21.33
2019-01-15T21:58:11.914Z,21.27
2019-01-15T22:00:49.665Z,17.17
2019-01-15T22:03:30.229Z,37.30
2019-01-15T22:08:08.716Z,22.57
2019-01-15T22:11:21.536Z,21.73
2019-01-15T22:13:58.488Z,20.57
2019-01-15T22:16:33.787Z,26.03
2019-01-15T22:21:18.380Z,34.63
2019-01-15T22:23:55.609Z,21.77
2019-01-15T22:26:30.114Z,26.33
2019-01-15T22:29:17.169Z,23.77
2019-01-15T22:31:50.966Z,25.43
2019-01-15T22:34:25.865Z,21.50
2019-01-15T22:37:00.630Z,21.87
2019-01-15T22:39:34.566Z,23.30
2019-01-15T22:42:07.214Z,23.87
2019-01-15T22:44:40.115Z,25.83
2019-01-15T22:47:13.186Z,24.13
2019-01-15T22:49:48.787Z,24.20
2019-01-15T22:52:21.312Z,30.53
2019-01-15T22:54:53.995Z,24.33
2019-01-15T22:57:27.259Z,29.83
2019-01-15T23:00:00.258Z,23.27
2019-01-15T23:02:51.934Z,23.83
2019-01-15T23:07:33.400Z,25.67
2019-01-15T23:10:09.353Z,22.23
2019-01-15T23:12:43.139Z,30.53
2019-01-15T23:15:17.980Z,34.07
2019-01-15T23:17:54.035Z,32.40
2019-01-15T23:20:25.671Z,37.10
2019-01-15T23:22:59.388Z,28.43
2019-01-15T23:25:38.968Z,37.53
2019-01-15T23:28:15.473Z,24.90
2019-01-15T23:31:24.613Z,26.37
2019-01-15T23:34:04.040Z,21.97
2019-01-15T23:36:36.819Z,24.23
2019-01-15T23:39:11.105Z,23.23
2019-01-15T23:41:45.561Z,22.23
2019-01-15T23:44:18.075Z,18.23
2019-01-15T23:46:57.470Z,22.70
2019-01-15T23:49:32.963Z,26.37
2019-01-15T23:52:04.554Z,30.33
2019-01-15T23:54:41.086Z,23.67
2019-01-15T23:57:21.766Z,27.67
2019-01-15T23:59:55.183Z,23.33
